createdAt,value
2022-12-15T00:02:17.491Z,-6.27
2022-12-15T00:05:02.710Z,-6.15
2022-12-15T00:07:48.052Z,-6.27
2022-12-15T00:10:33.720Z,-6.43
2022-12-15T00:13:18.886Z,-6.44
2022-12-15T00:16:07.421Z,-6.58
2022-12-15T00:18:52.904Z,-6.50
2022-12-15T00:21:38.018Z,-6.49
2022-12-15T00:24:23.870Z,-6.48
2022-12-15T00:27:09.097Z,-6.32
2022-12-15T00:29:54.710Z,-6.36
2022-12-15T00:32:40.956Z,-6.35
2022-12-15T00:35:27.558Z,-6.36
2022-12-15T00:38:12.879Z,-6.35
2022-12-15T00:40:39.571Z,-6.37
2022-12-15T00:43:06.218Z,-6.38
2022-12-15T00:45:51.212Z,-6.49
2022-12-15T00:48:17.812Z,-6.47
2022-12-15T00:50:53.392Z,-6.49
2022-12-15T00:53:40.003Z,-6.45
2022-12-15T00:56:26.310Z,-6.45
2022-12-15T00:59:11.859Z,-6.47
2022-12-15T01:01:57.773Z,-6.38
2022-12-15T01:04:43.624Z,-6.35
2022-12-15T01:07:28.910Z,-6.26
2022-12-15T01:10:14.275Z,-6.29
2022-12-15T01:12:59.545Z,-6.39
2022-12-15T01:15:45.098Z,-6.53
2022-12-15T01:18:30.634Z,-6.64
2022-12-15T01:21:03.161Z,-6.57
2022-12-15T01:23:31.402Z,-6.69
2022-12-15T01:25:58.241Z,-6.69
2022-12-15T01:28:25.251Z,-6.47
2022-12-15T01:30:51.893Z,-6.44
2022-12-15T01:33:20.429Z,-6.38
2022-12-15T01:35:58.698Z,-6.29
2022-12-15T01:38:26.576Z,-6.27
2022-12-15T01:40:58.800Z,-6.35
2022-12-15T01:43:29.523Z,-6.35
2022-12-15T01:46:12.111Z,-6.32
2022-12-15T01:48:49.156Z,-6.20
2022-12-15T01:51:36.138Z,-6.24
2022-12-15T01:54:09.968Z,-6.38
2022-12-15T01:56:41.289Z,-6.29
2022-12-15T01:59:11.055Z,-6.20
2022-12-15T02:01:37.698Z,-6.09
2022-12-15T02:04:04.533Z,-6.03
2022-12-15T02:06:31.100Z,-5.95
2022-12-15T02:09:00.664Z,-5.86
2022-12-15T02:12:10.978Z,-5.83
2022-12-15T02:14:55.178Z,-5.78
2022-12-15T02:17:24.401Z,-5.75
2022-12-15T02:19:59.718Z,-5.68
2022-12-15T02:22:35.065Z,-5.57
2022-12-15T02:25:40.497Z,-5.52
2022-12-15T02:28:24.120Z,-5.42
2022-12-15T02:31:33.938Z,-5.34
2022-12-15T02:34:09.684Z,-5.24
2022-12-15T02:36:41.296Z,-5.27
2022-12-15T02:39:07.861Z,-5.26
2022-12-15T02:41:40.935Z,-5.26
2022-12-15T02:44:14.193Z,-5.30
2022-12-15T02:47:11.842Z,-5.26
2022-12-15T02:49:56.942Z,-5.34
2022-12-15T02:52:55.662Z,-5.41
2022-12-15T02:55:41.425Z,-5.59
2022-12-15T02:58:22.537Z,-5.54
2022-12-15T03:01:02.671Z,-5.34
2022-12-15T03:03:33.191Z,-5.20
2022-12-15T03:06:02.222Z,-5.08
2022-12-15T03:08:29.793Z,-5.02
2022-12-15T03:10:57.452Z,-4.98
2022-12-15T03:13:24.704Z,-4.91
2022-12-15T03:15:52.475Z,-4.85
2022-12-15T03:18:19.081Z,-4.80
2022-12-15T03:20:49.947Z,-4.78
2022-12-15T03:23:16.735Z,-4.75
2022-12-15T03:25:46.422Z,-4.73
2022-12-15T03:28:16.747Z,-4.66
2022-12-15T03:30:43.986Z,-4.72
2022-12-15T03:33:11.489Z,-4.64
2022-12-15T03:35:38.080Z,-4.65
2022-12-15T03:38:04.721Z,-4.64
2022-12-15T03:40:31.335Z,-4.60
2022-12-15T03:42:58.900Z,-4.62
2022-12-15T03:45:27.378Z,-4.61
2022-12-15T03:47:55.626Z,-4.58
2022-12-15T03:50:24.928Z,-4.57
2022-12-15T03:53:02.830Z,-4.65
2022-12-15T03:55:29.925Z,-4.68
2022-12-15T03:57:57.199Z,-4.57
2022-12-15T04:00:24.749Z,-4.57
2022-12-15T04:02:52.219Z,-4.52
2022-12-15T04:05:22.663Z,-4.63
2022-12-15T04:07:49.300Z,-4.63
2022-12-15T04:10:16.157Z,-4.63
2022-12-15T04:12:42.743Z,-4.65
2022-12-15T04:15:11.009Z,-4.62
2022-12-15T04:17:38.090Z,-4.70
2022-12-15T04:20:09.042Z,-4.71
2022-12-15T04:22:40.772Z,-4.72
2022-12-15T04:25:28.717Z,-4.66
2022-12-15T04:28:14.648Z,-4.66
2022-12-15T04:31:14.417Z,-4.69
2022-12-15T04:34:03.729Z,-4.72
2022-12-15T04:36:49.900Z,-4.88
2022-12-15T04:39:35.294Z,-4.93
2022-12-15T04:42:21.612Z,-4.99
2022-12-15T04:45:12.208Z,-4.91
2022-12-15T04:47:59.782Z,-4.94
2022-12-15T04:50:45.254Z,-4.79
2022-12-15T04:53:34.353Z,-4.79
2022-12-15T04:56:19.777Z,-4.96
2022-12-15T04:59:06.169Z,-4.78
2022-12-15T05:01:52.652Z,-4.75
2022-12-15T05:04:38.503Z,-4.82
2022-12-15T05:07:23.752Z,-4.83
2022-12-15T05:10:14.646Z,-4.79
2022-12-15T05:13:00.850Z,-4.87
2022-12-15T05:15:46.169Z,-4.79
2022-12-15T05:18:31.375Z,-4.80
2022-12-15T05:21:17.600Z,-4.77
2022-12-15T05:24:02.749Z,-4.83
2022-12-15T05:26:52.693Z,-4.89
2022-12-15T05:29:38.296Z,-4.86
2022-12-15T05:32:04.988Z,-4.89
2022-12-15T05:34:33.832Z,-4.84
2022-12-15T05:37:02.365Z,-4.94
2022-12-15T05:39:29.621Z,-4.90
2022-12-15T05:41:57.275Z,-4.97
2022-12-15T05:44:25.501Z,-4.96
2022-12-15T05:46:52.699Z,-4.96
2022-12-15T05:49:19.439Z,-4.98
2022-12-15T05:51:47.645Z,-4.98
2022-12-15T05:54:17.453Z,-5.05
2022-12-15T05:56:44.956Z,-5.01
2022-12-15T05:59:12.223Z,-5.06
2022-12-15T06:01:39.034Z,-4.98
2022-12-15T06:04:05.827Z,-5.03
2022-12-15T06:06:32.532Z,-5.09
2022-12-15T06:08:59.244Z,-5.01
2022-12-15T06:11:26.264Z,-5.00
2022-12-15T06:13:55.778Z,-5.07
2022-12-15T06:16:24.513Z,-5.05
2022-12-15T06:18:54.888Z,-5.12
2022-12-15T06:21:24.548Z,-5.20
2022-12-15T06:23:51.943Z,-5.20
2022-12-15T06:26:20.595Z,-5.21
2022-12-15T06:28:48.447Z,-5.17
2022-12-15T06:31:17.676Z,-5.19
2022-12-15T06:33:44.328Z,-5.15
2022-12-15T06:36:13.982Z,-5.17
2022-12-15T06:38:43.544Z,-5.23
2022-12-15T06:41:15.280Z,-5.17
2022-12-15T06:43:42.181Z,-5.19
2022-12-15T06:46:09.646Z,-5.25
2022-12-15T06:48:36.659Z,-5.21
2022-12-15T06:51:13.311Z,-5.23
2022-12-15T06:53:50.862Z,-5.21
2022-12-15T06:56:24.463Z,-5.26
2022-12-15T06:58:56.146Z,-5.23
2022-12-15T07:01:24.451Z,-5.27
2022-12-15T07:03:52.734Z,-5.34
2022-12-15T07:06:20.016Z,-5.29
2022-12-15T07:08:54.240Z,-5.18
2022-12-15T07:11:22.223Z,-5.17
2022-12-15T07:13:52.973Z,-5.20
2022-12-15T07:16:21.634Z,-5.26
2022-12-15T07:18:48.865Z,-5.14
2022-12-15T07:21:15.791Z,-5.15
2022-12-15T07:23:58.438Z,-5.17
2022-12-15T07:26:26.139Z,-5.21
2022-12-15T07:28:53.572Z,-5.16
2022-12-15T07:31:21.295Z,-5.38
2022-12-15T07:33:48.441Z,-5.24
2022-12-15T07:36:15.469Z,-5.12
2022-12-15T07:38:42.315Z,-5.02
2022-12-15T07:41:10.122Z,-5.10
2022-12-15T07:43:37.900Z,-5.05
2022-12-15T07:46:06.223Z,-5.02
2022-12-15T07:48:33.392Z,-4.96
2022-12-15T07:51:10.866Z,-4.93
2022-12-15T07:53:38.239Z,-4.97
2022-12-15T07:56:08.898Z,-4.78
2022-12-15T07:58:37.130Z,-4.82
2022-12-15T08:01:06.876Z,-4.72
2022-12-15T08:03:34.665Z,-4.67
2022-12-15T08:06:11.175Z,-4.60
2022-12-15T08:08:38.337Z,-4.64
2022-12-15T08:11:09.868Z,-4.39
2022-12-15T08:16:24.629Z,-4.36
2022-12-15T08:18:51.262Z,-4.27
2022-12-15T08:21:17.945Z,-4.05
2022-12-15T08:23:45.131Z,-4.03
2022-12-15T08:26:14.467Z,-3.97
2022-12-15T08:28:42.933Z,-3.98
2022-12-15T08:31:17.833Z,-3.94
2022-12-15T08:33:45.566Z,-4.06
2022-12-15T08:36:14.429Z,-4.04
2022-12-15T08:38:43.240Z,-4.17
2022-12-15T08:41:13.249Z,-4.26
2022-12-15T08:43:47.659Z,-4.21
2022-12-15T08:46:17.008Z,-4.22
2022-12-15T08:48:44.296Z,-4.19
2022-12-15T08:51:10.987Z,-4.14
2022-12-15T08:53:38.770Z,-4.11
2022-12-15T08:56:12.360Z,-3.96
2022-12-15T08:58:39.629Z,-3.96
2022-12-15T09:01:09.670Z,-3.84
2022-12-15T09:03:36.808Z,-3.79
2022-12-15T09:06:07.070Z,-3.81
2022-12-15T09:08:34.203Z,-3.81
2022-12-15T09:11:01.640Z,-3.67
2022-12-15T09:13:29.502Z,-3.58
2022-12-15T09:16:09.536Z,-3.65
2022-12-15T09:18:36.694Z,-3.62
2022-12-15T09:21:05.305Z,-3.50
2022-12-15T09:23:33.119Z,-3.54
2022-12-15T09:26:10.497Z,-3.51
2022-12-15T09:28:40.390Z,-3.43
2022-12-15T09:31:21.218Z,-3.34
2022-12-15T09:33:49.528Z,-3.18
2022-12-15T09:36:16.221Z,-3.06
2022-12-15T09:38:43.738Z,-2.93
2022-12-15T09:41:13.299Z,-2.77
2022-12-15T09:43:52.209Z,-2.94
2022-12-15T09:46:22.126Z,-2.77
2022-12-15T09:48:50.437Z,-2.78
2022-12-15T09:51:19.222Z,-2.73
2022-12-15T09:53:55.906Z,-3.01
2022-12-15T09:56:58.498Z,-2.96
2022-12-15T09:59:33.262Z,-2.76
2022-12-15T10:02:27.594Z,-2.83
2022-12-15T10:05:14.084Z,-2.70
2022-12-15T10:07:46.274Z,-2.60
2022-12-15T10:10:22.006Z,-2.47
2022-12-15T10:13:00.151Z,-2.38
2022-12-15T10:15:38.632Z,-2.32
2022-12-15T10:18:10.491Z,-2.11
2022-12-15T10:20:37.624Z,-1.81
2022-12-15T10:23:16.245Z,-2.04
2022-12-15T10:25:51.317Z,-2.05
2022-12-15T10:29:02.102Z,-1.80
2022-12-15T10:31:45.196Z,-1.68
2022-12-15T10:34:31.076Z,-1.43
2022-12-15T10:36:58.506Z,-1.55
2022-12-15T10:39:39.825Z,-1.44
2022-12-15T10:42:13.907Z,-1.49
2022-12-15T10:44:44.041Z,-1.54
2022-12-15T10:47:28.479Z,-1.54
2022-12-15T10:50:19.573Z,-1.58
2022-12-15T10:52:50.759Z,-1.51
2022-12-15T10:55:37.886Z,-1.42
2022-12-15T10:58:16.579Z,-1.64
2022-12-15T11:00:43.248Z,-1.62
2022-12-15T11:03:22.944Z,-1.53
2022-12-15T11:05:56.476Z,-1.47
2022-12-15T11:08:24.697Z,-1.43
2022-12-15T11:11:13.607Z,-1.27
2022-12-15T11:13:41.243Z,-1.26
2022-12-15T11:16:26.285Z,-1.21
2022-12-15T11:19:01.998Z,-1.11
2022-12-15T11:21:44.910Z,-1.11
2022-12-15T11:24:21.539Z,-0.98
2022-12-15T11:27:20.992Z,-1.28
2022-12-15T11:30:02.969Z,-1.29
2022-12-15T11:32:34.065Z,-1.26
2022-12-15T11:35:01.160Z,-1.12
2022-12-15T11:37:39.054Z,-1.06
2022-12-15T11:40:17.592Z,-1.11
2022-12-15T11:42:53.009Z,-0.91
2022-12-15T11:45:30.204Z,-0.69
2022-12-15T11:48:19.843Z,-0.65
2022-12-15T11:50:58.975Z,-0.47
2022-12-15T11:53:49.449Z,-0.39
2022-12-15T11:56:35.611Z,-0.39
2022-12-15T11:59:39.948Z,-0.58
2022-12-15T12:02:34.395Z,-0.79
2022-12-15T12:05:00.958Z,-0.76
2022-12-15T12:07:49.204Z,-0.64
2022-12-15T12:10:33.354Z,-0.69
2022-12-15T12:13:33.991Z,-0.78
2022-12-15T12:16:06.714Z,-0.91
2022-12-15T12:18:52.739Z,-0.96
2022-12-15T12:21:37.297Z,-0.96
2022-12-15T12:24:15.957Z,-0.98
2022-12-15T12:26:50.305Z,-0.96
2022-12-15T12:29:29.124Z,-0.89
2022-12-15T12:32:05.391Z,-0.97
2022-12-15T12:35:30.907Z,-0.98
2022-12-15T12:37:54.893Z,-1.01
2022-12-15T12:40:41.945Z,-0.95
2022-12-15T12:43:14.112Z,-1.16
2022-12-15T12:45:51.537Z,-1.27
2022-12-15T12:48:31.090Z,-1.21
2022-12-15T12:51:22.637Z,-1.37
2022-12-15T12:53:50.367Z,-1.37
2022-12-15T12:56:32.595Z,-1.43
2022-12-15T12:58:59.590Z,-1.38
2022-12-15T13:01:34.734Z,-1.45
2022-12-15T13:04:33.840Z,-1.11
2022-12-15T13:07:25.670Z,-1.12
2022-12-15T13:10:14.447Z,-0.98
2022-12-15T13:12:54.681Z,-1.18
2022-12-15T13:15:27.284Z,-1.18
2022-12-15T13:17:59.239Z,-1.38
2022-12-15T13:20:34.853Z,-1.51
2022-12-15T13:23:21.646Z,-1.58
2022-12-15T13:25:57.131Z,-1.70
2022-12-15T13:28:39.732Z,-1.69
2022-12-15T13:31:22.002Z,-2.05
2022-12-15T13:33:58.819Z,-2.16
2022-12-15T13:36:37.712Z,-2.30
2022-12-15T13:39:27.425Z,-2.36
2022-12-15T13:44:57.388Z,-2.68
2022-12-15T13:47:27.478Z,-2.57
2022-12-15T13:50:02.209Z,-2.77
2022-12-15T13:53:08.622Z,-2.80
2022-12-15T13:55:28.802Z,-2.76
2022-12-15T13:58:23.125Z,-2.71
2022-12-15T14:00:57.188Z,-2.62
2022-12-15T14:03:24.582Z,-2.73
2022-12-15T14:05:56.741Z,-2.80
2022-12-15T14:08:25.729Z,-2.94
2022-12-15T14:10:56.767Z,-2.95
2022-12-15T14:13:36.930Z,-2.96
2022-12-15T14:16:19.032Z,-2.92
2022-12-15T14:19:02.401Z,-2.94
2022-12-15T14:21:30.394Z,-2.97
2022-12-15T14:24:36.508Z,-3.06
2022-12-15T14:26:44.510Z,-3.23
2022-12-15T14:29:13.048Z,-3.39
2022-12-15T14:31:40.621Z,-3.42
2022-12-15T14:34:13.589Z,-3.37
2022-12-15T14:36:42.063Z,-3.32
2022-12-15T14:39:19.815Z,-3.42
2022-12-15T14:41:51.421Z,-3.61
2022-12-15T14:44:36.489Z,-3.93
2022-12-15T14:47:15.258Z,-4.15
2022-12-15T14:49:45.256Z,-4.39
2022-12-15T14:52:37.198Z,-4.66
2022-12-15T14:55:36.872Z,-4.76
2022-12-15T14:58:26.593Z,-4.92
2022-12-15T15:00:55.064Z,-5.15
2022-12-15T15:03:27.708Z,-5.47
2022-12-15T15:05:59.933Z,-5.75
2022-12-15T15:08:34.823Z,-6.03
2022-12-15T15:11:23.681Z,-6.02
2022-12-15T15:13:56.093Z,-6.22
2022-12-15T15:16:23.018Z,-6.06
2022-12-15T15:18:52.254Z,-5.96
2022-12-15T15:21:23.333Z,-6.03
2022-12-15T15:24:00.171Z,-5.86
2022-12-15T15:26:27.751Z,-5.99
2022-12-15T15:28:54.694Z,-6.23
2022-12-15T15:31:41.568Z,-5.98
2022-12-15T15:34:08.868Z,-6.23
2022-12-15T15:36:38.263Z,-6.33
2022-12-15T15:39:13.563Z,-6.69
2022-12-15T15:41:40.157Z,-7.06
2022-12-15T15:44:14.749Z,-7.13
2022-12-15T15:46:51.106Z,-7.05
2022-12-15T15:49:21.711Z,-7.44
2022-12-15T15:51:49.046Z,-7.38
2022-12-15T15:54:22.213Z,-7.25
2022-12-15T15:56:48.851Z,-7.04
2022-12-15T15:59:18.238Z,-7.15
2022-12-15T16:01:46.813Z,-7.28
2022-12-15T16:04:13.496Z,-7.44
2022-12-15T16:06:46.683Z,-7.54
2022-12-15T16:09:15.326Z,-7.78
2022-12-15T16:11:42.071Z,-7.65
2022-12-15T16:14:14.096Z,-7.55
2022-12-15T16:16:41.806Z,-7.48
2022-12-15T16:19:08.619Z,-7.44
2022-12-15T16:21:37.076Z,-7.48
2022-12-15T16:24:15.635Z,-7.55
2022-12-15T16:26:47.922Z,-7.80
2022-12-15T16:29:17.534Z,-8.00
2022-12-15T16:31:45.841Z,-7.99
2022-12-15T16:34:14.017Z,-7.97
2022-12-15T16:36:42.881Z,-7.88
2022-12-15T16:39:26.724Z,-8.17
2022-12-15T16:41:56.160Z,-8.28
2022-12-15T16:44:25.325Z,-8.13
2022-12-15T16:46:53.272Z,-8.04
2022-12-15T16:49:21.588Z,-8.06
2022-12-15T16:51:52.742Z,-8.01
2022-12-15T16:54:26.440Z,-8.17
2022-12-15T16:56:55.346Z,-8.36
2022-12-15T16:59:35.324Z,-8.32
2022-12-15T17:02:28.923Z,-8.24
2022-12-15T17:04:56.524Z,-8.53
2022-12-15T17:07:27.202Z,-8.69
2022-12-15T17:09:54.667Z,-8.57
2022-12-15T17:12:22.577Z,-8.60
2022-12-15T17:14:49.678Z,-8.74
2022-12-15T17:17:19.515Z,-8.87
2022-12-15T17:20:20.023Z,-8.89
2022-12-15T17:22:34.188Z,-8.79
2022-12-15T17:25:02.169Z,-8.68
2022-12-15T17:27:30.554Z,-8.73
2022-12-15T17:30:00.205Z,-8.71
2022-12-15T17:32:27.159Z,-8.79
2022-12-15T17:34:54.848Z,-8.80
2022-12-15T17:37:22.269Z,-8.85
2022-12-15T17:39:51.509Z,-8.75
2022-12-15T17:42:20.770Z,-8.81
2022-12-15T17:44:48.974Z,-8.74
2022-12-15T17:47:19.288Z,-8.67
2022-12-15T17:49:47.806Z,-8.73
2022-12-15T17:52:22.858Z,-8.87
2022-12-15T17:54:51.985Z,-8.92
2022-12-15T17:57:19.633Z,-8.88
2022-12-15T17:59:48.802Z,-8.90
2022-12-15T18:02:16.956Z,-8.91
2022-12-15T18:04:45.311Z,-9.03
2022-12-15T18:07:24.202Z,-9.00
2022-12-15T18:09:52.483Z,-9.14
2022-12-15T18:12:25.395Z,-9.13
2022-12-15T18:14:53.057Z,-9.09
2022-12-15T18:17:20.397Z,-8.93
2022-12-15T18:19:47.305Z,-9.01
2022-12-15T18:22:19.187Z,-9.29
2022-12-15T18:24:47.200Z,-9.13
2022-12-15T18:27:23.526Z,-9.19
2022-12-15T18:29:50.702Z,-9.20
2022-12-15T18:32:18.002Z,-9.35
2022-12-15T18:34:44.809Z,-9.53
2022-12-15T18:37:19.264Z,-9.47
2022-12-15T18:39:46.578Z,-9.46
2022-12-15T18:42:19.674Z,-9.42
2022-12-15T18:44:49.225Z,-9.46
2022-12-15T18:47:21.771Z,-9.54
2022-12-15T18:49:49.289Z,-9.42
2022-12-15T18:52:21.526Z,-9.22
2022-12-15T18:54:50.551Z,-9.08
2022-12-15T18:57:27.146Z,-8.89
2022-12-15T18:59:57.405Z,-8.70
2022-12-15T19:02:24.202Z,-8.65
2022-12-15T19:04:50.991Z,-8.58
2022-12-15T19:07:17.565Z,-8.48
2022-12-15T19:09:44.166Z,-8.47
2022-12-15T19:12:17.952Z,-8.47
2022-12-15T19:14:47.080Z,-8.43
2022-12-15T19:17:35.336Z,-8.36
2022-12-15T19:20:22.149Z,-8.31
2022-12-15T19:22:50.658Z,-8.34
2022-12-15T19:25:25.976Z,-8.34
2022-12-15T19:27:58.749Z,-8.29
2022-12-15T19:30:28.366Z,-8.35
2022-12-15T19:32:55.349Z,-8.41
2022-12-15T19:35:22.060Z,-8.39
2022-12-15T19:37:49.934Z,-8.35
2022-12-15T19:40:22.669Z,-8.37
2022-12-15T19:42:50.269Z,-8.44
2022-12-15T19:45:20.255Z,-8.59
2022-12-15T19:47:47.953Z,-8.69
2022-12-15T19:50:20.961Z,-8.68
2022-12-15T19:52:51.534Z,-8.83
2022-12-15T19:55:23.777Z,-8.89
2022-12-15T19:57:50.376Z,-8.93
2022-12-15T20:00:21.770Z,-9.09
2022-12-15T20:02:51.359Z,-9.35
2022-12-15T20:05:19.439Z,-9.49
2022-12-15T20:07:46.376Z,-9.69
2022-12-15T20:10:24.385Z,-9.73
2022-12-15T20:12:54.513Z,-9.68
2022-12-15T20:15:23.985Z,-9.81
2022-12-15T20:17:57.064Z,-9.87
2022-12-15T20:20:27.107Z,-9.92
2022-12-15T20:22:56.684Z,-9.83
2022-12-15T20:25:30.329Z,-9.81
2022-12-15T20:27:57.702Z,-9.77
2022-12-15T20:30:32.071Z,-9.86
2022-12-15T20:33:04.030Z,-9.95
2022-12-15T20:35:34.630Z,-10.07
2022-12-15T20:38:07.987Z,-10.09
2022-12-15T20:40:34.541Z,-10.02
2022-12-15T20:43:01.409Z,-10.06
2022-12-15T20:45:28.036Z,-10.05
2022-12-15T20:47:56.195Z,-10.21
2022-12-15T20:50:31.932Z,-10.30
2022-12-15T20:52:59.121Z,-10.57
2022-12-15T20:55:26.416Z,-10.37
2022-12-15T20:57:53.979Z,-10.05
2022-12-15T21:00:22.114Z,-9.91
2022-12-15T21:02:50.296Z,-9.83
2022-12-15T21:05:25.015Z,-9.83
2022-12-15T21:07:52.437Z,-9.88
2022-12-15T21:10:20.647Z,-9.98
2022-12-15T21:12:49.343Z,-10.09
2022-12-15T21:15:23.491Z,-10.02
2022-12-15T21:18:08.856Z,-10.01
2022-12-15T21:20:41.437Z,-10.09
2022-12-15T21:23:19.649Z,-10.03
2022-12-15T21:25:47.280Z,-9.89
2022-12-15T21:28:14.194Z,-9.81
2022-12-15T21:30:41.280Z,-9.69
2022-12-15T21:33:07.926Z,-9.60
2022-12-15T21:35:35.289Z,-9.32
2022-12-15T21:38:02.365Z,-9.16
2022-12-15T21:40:29.514Z,-9.13
2022-12-15T21:42:56.924Z,-9.01
2022-12-15T21:45:25.909Z,-9.03
2022-12-15T21:48:12.493Z,-9.00
2022-12-15T21:50:39.536Z,-9.02
2022-12-15T21:53:06.961Z,-8.93
2022-12-15T21:55:33.719Z,-8.82
2022-12-15T21:58:00.262Z,-8.76
2022-12-15T22:00:26.918Z,-8.61
2022-12-15T22:02:53.786Z,-8.57
2022-12-15T22:05:22.852Z,-8.52
2022-12-15T22:07:50.492Z,-8.44
2022-12-15T22:10:18.292Z,-8.51
2022-12-15T22:12:51.491Z,-8.50
2022-12-15T22:15:24.319Z,-8.59
2022-12-15T22:17:50.904Z,-8.65
2022-12-15T22:20:22.650Z,-8.66
2022-12-15T22:22:50.209Z,-8.62
2022-12-15T22:25:25.004Z,-8.60
2022-12-15T22:27:52.518Z,-8.52
2022-12-15T22:30:26.503Z,-8.48
2022-12-15T22:32:53.818Z,-8.53
2022-12-15T22:35:23.161Z,-8.55
2022-12-15T22:37:53.391Z,-8.65
2022-12-15T22:40:21.569Z,-8.58
2022-12-15T22:42:55.155Z,-8.51
2022-12-15T22:45:24.112Z,-8.48
2022-12-15T22:47:52.369Z,-8.39
2022-12-15T22:50:23.610Z,-8.34
2022-12-15T22:52:50.611Z,-8.32
2022-12-15T22:55:20.568Z,-8.23
2022-12-15T22:57:56.612Z,-8.17
2022-12-15T23:00:23.203Z,-8.13
2022-12-15T23:02:49.936Z,-8.17
2022-12-15T23:05:18.974Z,-8.27
2022-12-15T23:07:46.251Z,-8.32
2022-12-15T23:10:33.643Z,-8.39
2022-12-15T23:13:00.202Z,-8.44
2022-12-15T23:15:47.179Z,-8.46
2022-12-15T23:18:14.339Z,-8.44
2022-12-15T23:20:41.204Z,-8.42
2022-12-15T23:23:08.340Z,-8.33
2022-12-15T23:25:34.960Z,-8.60
2022-12-15T23:28:01.544Z,-8.71
2022-12-15T23:30:28.102Z,-8.73
2022-12-15T23:32:55.411Z,-8.81
2022-12-15T23:35:22.183Z,-8.85
2022-12-15T23:37:48.806Z,-8.98
2022-12-15T23:40:21.273Z,-9.17
2022-12-15T23:42:48.774Z,-9.38
2022-12-15T23:45:15.481Z,-9.44
2022-12-15T23:47:42.414Z,-9.41
2022-12-15T23:50:09.603Z,-9.33
2022-12-15T23:52:36.865Z,-9.36
2022-12-15T23:55:04.637Z,-9.46
2022-12-15T23:57:31.517Z,-9.40
2022-12-15T23:59:58.087Z,-9.46
